Washingtons Birthplace, Virginia
Current Conditions -  °F | °C
As of 1:15 AM on Thursday 29 Jan 2015 (Local Time) from KXSA Reporting Station
Clear Clear  
Wind Chill: 21°   Ceiling: Unl
Heat Index: 21°   Visibility: 10mi
Dew Point: 11°   Wind: 0mph
Humidity: 64%   Direction: NA
Pressure: 30.34"   Gusts: NA
Location:  38.184°N, 76.9988°W
Report Text: KXSA 290615Z AUTO 00000KT 10SM CLR M06/M12 A3034 RMK AO2 T10611119
Loading
Personal Weather Stations






























Interactive Weather Map New forecast layout! Learn more

10-Day Weather Forecast

Advertisements
Track Severe Weather on mobile